Portada
METAR-TAF:

METAR-TAF

Aeroports :

Jaipur, Índia

latitud: 26-49N, longitud: 075-48E, altitud: 385 m

Observació

L'informe es va fer fa 43 minuts, a les 21:00 UTC
Vent 2 kt amb direcció variable
Temperatura 22°C
Humitat 60%
Pressió 1015 hPa
Visibilitat: 2000 m
Núvols disperses a una alçada de 3000 ft
fum

METAR: VIJP 242100Z VRB02KT 2000 FU SCT030 22/14 Q1015 NOSIG

Hora: 03:13 (21:43 UTC)

Pronòstic

L'informe es va fer fa 1 hora i 43 minuts, a les 20:00 UTC
Pronòstic vàlid del 24 a les 21 UTC al 25 a les 06 UTC
Vent 3 kt amb direcció variable
Visibilitat: 2000 m
Escasses núvols a una alçada de 3000 ft
Núvols disperses a una alçada de 10000 ft
fum
Evolucionant progressivament
l' 25 a les 04 UTC al 25 a les 06 UTC
Vent 3 kt amb direcció variable
Visibilitat: 5000 m
Escasses núvols a una alçada de 3000 ft
calitja

TAF: VIJP 242000Z 2421/2506 VRB03KT 2000 FU FEW030 SCT100 BECMG 2504/2506 VRB03KT 5000 HZ FEW030

Observacions i pronòstics meteorològics de més de 4000 aeroports (METAR i TAF).

Les estacions disponibles són els punts grocs i vermells al mapa.

Posi el ratolí al punt desitjat per veure el nom de l'estació.

Feu clic per veure les observacions i els pronòstics meteorològics.

Per canviar el mapa: feu clic els botons verds amb una creu de color negre per apropar; al botó verd amb un guió per allunyar la imatge; o en les fletxes verdes per a mapes adjacents.


METAR-TAF: